sensor_id;sensor_type;location;lat;lon;timestamp;pressure;altitude;pressure_sealevel;temperature;humidity
22018;BME280;11173;51.050;7.108;2022-08-21T00:04:51;99659.25;;;15.07;61.94
22018;BME280;11173;51.050;7.108;2022-08-21T00:09:52;99642.97;;;15.02;60.17
22018;BME280;11173;51.050;7.108;2022-08-21T00:14:53;99645.34;;;14.91;61.07
22018;BME280;11173;51.050;7.108;2022-08-21T00:19:53;99639.06;;;14.87;62.95
22018;BME280;11173;51.050;7.108;2022-08-21T00:24:54;99639.28;;;14.80;63.74
22018;BME280;11173;51.050;7.108;2022-08-21T00:29:54;99625.38;;;14.76;64.11
22018;BME280;11173;51.050;7.108;2022-08-21T00:34:55;99620.09;;;14.78;64.14
22018;BME280;11173;51.050;7.108;2022-08-21T00:39:56;99625.69;;;14.78;64.16
22018;BME280;11173;51.050;7.108;2022-08-21T00:44:56;99620.09;;;14.78;65.06
22018;BME280;11173;51.050;7.108;2022-08-21T00:49:57;99618.50;;;14.77;65.39
22018;BME280;11173;51.050;7.108;2022-08-21T00:54:58;99626.72;;;14.84;64.95
22018;BME280;11173;51.050;7.108;2022-08-21T01:00:03;99617.53;;;14.84;63.84
22018;BME280;11173;51.050;7.108;2022-08-21T01:05:05;99623.81;;;14.88;64.61
22018;BME280;11173;51.050;7.108;2022-08-21T01:10:07;99626.28;;;14.86;65.10
22018;BME280;11173;51.050;7.108;2022-08-21T01:15:09;99632.34;;;14.84;65.07
22018;BME280;11173;51.050;7.108;2022-08-21T01:20:11;99631.63;;;14.80;64.77
22018;BME280;11173;51.050;7.108;2022-08-21T01:25:14;99639.53;;;14.85;64.96
22018;BME280;11173;51.050;7.108;2022-08-21T01:30:24;99624.59;;;14.88;64.70
22018;BME280;11173;51.050;7.108;2022-08-21T01:35:25;99617.63;;;14.80;62.34
22018;BME280;11173;51.050;7.108;2022-08-21T01:40:25;99628.41;;;14.82;60.96
22018;BME280;11173;51.050;7.108;2022-08-21T01:45:26;99632.19;;;14.75;59.88
22018;BME280;11173;51.050;7.108;2022-08-21T01:50:26;99624.47;;;14.66;59.86
22018;BME280;11173;51.050;7.108;2022-08-21T01:55:27;99626.38;;;14.57;62.85
22018;BME280;11173;51.050;7.108;2022-08-21T02:00:27;99624.03;;;14.42;63.73
22018;BME280;11173;51.050;7.108;2022-08-21T02:05:28;99614.47;;;14.27;62.74
22018;BME280;11173;51.050;7.108;2022-08-21T02:10:31;99624.00;;;14.17;62.86
22018;BME280;11173;51.050;7.108;2022-08-21T02:15:31;99614.91;;;14.00;65.46
22018;BME280;11173;51.050;7.108;2022-08-21T02:20:35;99621.38;;;13.97;65.12
22018;BME280;11173;51.050;7.108;2022-08-21T02:25:37;99621.81;;;13.95;65.23
22018;BME280;11173;51.050;7.108;2022-08-21T02:30:42;99616.91;;;13.99;64.78
22018;BME280;11173;51.050;7.108;2022-08-21T02:35:44;99613.22;;;14.02;63.42
22018;BME280;11173;51.050;7.108;2022-08-21T02:40:47;99614.44;;;14.01;64.60
22018;BME280;11173;51.050;7.108;2022-08-21T02:45:48;99611.66;;;14.01;64.99
22018;BME280;11173;51.050;7.108;2022-08-21T02:50:58;99601.00;;;13.96;64.14
22018;BME280;11173;51.050;7.108;2022-08-21T02:56:00;99605.50;;;13.94;65.92
22018;BME280;11173;51.050;7.108;2022-08-21T03:01:01;99602.63;;;13.81;64.43
22018;BME280;11173;51.050;7.108;2022-08-21T03:06:01;99605.06;;;13.66;65.13
22018;BME280;11173;51.050;7.108;2022-08-21T03:11:02;99604.66;;;13.51;65.63
22018;BME280;11173;51.050;7.108;2022-08-21T03:16:03;99599.47;;;13.49;64.82
22018;BME280;11173;51.050;7.108;2022-08-21T03:21:04;99596.66;;;13.37;66.48
22018;BME280;11173;51.050;7.108;2022-08-21T03:26:05;99594.63;;;13.37;66.46
22018;BME280;11173;51.050;7.108;2022-08-21T03:31:05;99599.34;;;13.40;67.26
22018;BME280;11173;51.050;7.108;2022-08-21T03:36:07;99608.09;;;13.42;66.53
22018;BME280;11173;51.050;7.108;2022-08-21T03:41:08;99614.47;;;13.43;65.75
22018;BME280;11173;51.050;7.108;2022-08-21T03:46:09;99601.47;;;13.36;65.51
22018;BME280;11173;51.050;7.108;2022-08-21T03:51:10;99608.13;;;13.26;65.80
22018;BME280;11173;51.050;7.108;2022-08-21T03:56:10;99596.09;;;13.12;64.62
22018;BME280;11173;51.050;7.108;2022-08-21T04:01:10;99607.09;;;13.03;66.34
22018;BME280;11173;51.050;7.108;2022-08-21T04:06:11;99618.13;;;12.94;66.00
22018;BME280;11173;51.050;7.108;2022-08-21T04:11:11;99625.38;;;12.91;68.25
22018;BME280;11173;51.050;7.108;2022-08-21T04:16:12;99616.41;;;12.84;68.41
22018;BME280;11173;51.050;7.108;2022-08-21T04:21:13;99622.22;;;12.89;67.31
22018;BME280;11173;51.050;7.108;2022-08-21T04:26:14;99615.44;;;12.90;66.43
22018;BME280;11173;51.050;7.108;2022-08-21T04:31:14;99621.03;;;12.90;68.84
22018;BME280;11173;51.050;7.108;2022-08-21T04:36:15;99630.19;;;12.91;68.29
22018;BME280;11173;51.050;7.108;2022-08-21T04:41:16;99617.44;;;12.90;68.57
22018;BME280;11173;51.050;7.108;2022-08-21T04:46:16;99632.19;;;12.90;69.73
22018;BME280;11173;51.050;7.108;2022-08-21T04:51:24;99636.56;;;12.91;69.91
22018;BME280;11173;51.050;7.108;2022-08-21T04:56:49;99635.25;;;12.96;69.44
22018;BME280;11173;51.050;7.108;2022-08-21T05:01:52;99629.25;;;12.98;70.01
22018;BME280;11173;51.050;7.108;2022-08-21T05:06:57;99637.88;;;13.03;70.25
22018;BME280;11173;51.050;7.108;2022-08-21T05:12:01;99639.50;;;13.17;68.38
22018;BME280;11173;51.050;7.108;2022-08-21T05:17:02;99651.56;;;13.30;67.03
22018;BME280;11173;51.050;7.108;2022-08-21T05:22:03;99657.91;;;13.47;66.15
22018;BME280;11173;51.050;7.108;2022-08-21T05:27:03;99653.41;;;13.66;65.80
22018;BME280;11173;51.050;7.108;2022-08-21T05:32:11;99652.09;;;14.00;65.91
22018;BME280;11173;51.050;7.108;2022-08-21T05:37:12;99651.38;;;14.38;66.70
22018;BME280;11173;51.050;7.108;2022-08-21T05:42:12;99658.34;;;14.98;66.43
22018;BME280;11173;51.050;7.108;2022-08-21T05:47:13;99656.47;;;15.64;65.49
22018;BME280;11173;51.050;7.108;2022-08-21T05:52:18;99649.13;;;16.24;64.33
22018;BME280;11173;51.050;7.108;2022-08-21T05:57:19;99652.84;;;16.83;63.59
22018;BME280;11173;51.050;7.108;2022-08-21T06:02:20;99658.91;;;17.32;62.51
22018;BME280;11173;51.050;7.108;2022-08-21T06:07:21;99662.53;;;17.78;62.09
22018;BME280;11173;51.050;7.108;2022-08-21T06:12:21;99662.31;;;18.19;61.59
22018;BME280;11173;51.050;7.108;2022-08-21T06:17:21;99652.88;;;18.50;60.53
22018;BME280;11173;51.050;7.108;2022-08-21T06:22:23;99645.22;;;18.74;59.90
22018;BME280;11173;51.050;7.108;2022-08-21T06:27:23;99647.91;;;19.02;59.60
22018;BME280;11173;51.050;7.108;2022-08-21T06:32:24;99650.13;;;19.22;58.83
22018;BME280;11173;51.050;7.108;2022-08-21T06:37:24;99638.53;;;19.20;57.99
22018;BME280;11173;51.050;7.108;2022-08-21T06:42:25;99637.91;;;19.01;57.42
22018;BME280;11173;51.050;7.108;2022-08-21T06:47:27;99645.81;;;18.87;57.42
22018;BME280;11173;51.050;7.108;2022-08-21T06:52:28;99639.94;;;18.67;57.60
22018;BME280;11173;51.050;7.108;2022-08-21T06:57:28;99652.41;;;18.51;57.33
22018;BME280;11173;51.050;7.108;2022-08-21T07:02:29;99646.59;;;18.36;57.58
22018;BME280;11173;51.050;7.108;2022-08-21T07:07:32;99656.03;;;18.33;57.80
22018;BME280;11173;51.050;7.108;2022-08-21T07:12:33;99649.94;;;18.25;57.33
22018;BME280;11173;51.050;7.108;2022-08-21T07:17:33;99655.44;;;18.20;57.71
22018;BME280;11173;51.050;7.108;2022-08-21T07:22:35;99659.84;;;18.12;57.50
22018;BME280;11173;51.050;7.108;2022-08-21T07:27:36;99661.88;;;18.02;57.38
22018;BME280;11173;51.050;7.108;2022-08-21T07:32:37;99662.03;;;17.98;57.23
22018;BME280;11173;51.050;7.108;2022-08-21T07:37:37;99662.69;;;17.93;57.19
22018;BME280;11173;51.050;7.108;2022-08-21T07:42:42;99672.53;;;17.88;57.09
22018;BME280;11173;51.050;7.108;2022-08-21T07:47:44;99661.28;;;17.79;57.00
22018;BME280;11173;51.050;7.108;2022-08-21T07:52:45;99663.50;;;17.75;57.10
22018;BME280;11173;51.050;7.108;2022-08-21T07:57:46;99666.00;;;17.73;57.30
22018;BME280;11173;51.050;7.108;2022-08-21T08:02:49;99658.00;;;17.72;57.17
22018;BME280;11173;51.050;7.108;2022-08-21T08:07:50;99664.56;;;17.78;57.47
22018;BME280;11173;51.050;7.108;2022-08-21T08:12:52;99672.22;;;17.86;57.24
22018;BME280;11173;51.050;7.108;2022-08-21T08:17:55;99668.16;;;17.97;57.13
22018;BME280;11173;51.050;7.108;2022-08-21T08:22:57;99654.19;;;18.02;56.98
22018;BME280;11173;51.050;7.108;2022-08-21T08:27:57;99657.78;;;18.12;56.80
22018;BME280;11173;51.050;7.108;2022-08-21T08:32:58;99659.03;;;18.20;56.35
22018;BME280;11173;51.050;7.108;2022-08-21T08:37:59;99657.13;;;18.26;56.57
22018;BME280;11173;51.050;7.108;2022-08-21T08:43:00;99649.13;;;18.34;56.79
22018;BME280;11173;51.050;7.108;2022-08-21T08:48:03;99643.00;;;18.36;56.43
22018;BME280;11173;51.050;7.108;2022-08-21T08:58:12;99641.56;;;18.59;56.59
22018;BME280;11173;51.050;7.108;2022-08-21T09:03:17;99641.50;;;18.68;56.54
22018;BME280;11173;51.050;7.108;2022-08-21T09:19:00;99625.28;;;19.11;55.13
22018;BME280;11173;51.050;7.108;2022-08-21T09:29:27;99609.06;;;19.45;55.10
22018;BME280;11173;51.050;7.108;2022-08-21T09:34:31;99611.72;;;19.63;54.67
22018;BME280;11173;51.050;7.108;2022-08-21T09:39:38;99620.78;;;19.82;54.11
22018;BME280;11173;51.050;7.108;2022-08-21T09:44:40;99607.56;;;19.89;54.46
22018;BME280;11173;51.050;7.108;2022-08-21T09:49:44;99617.59;;;20.04;54.14
22018;BME280;11173;51.050;7.108;2022-08-21T09:54:46;99609.13;;;20.19;53.86
22018;BME280;11173;51.050;7.108;2022-08-21T09:59:47;99606.78;;;20.33;52.73
22018;BME280;11173;51.050;7.108;2022-08-21T10:04:56;99600.53;;;20.43;51.29
22018;BME280;11173;51.050;7.108;2022-08-21T10:10:05;99590.75;;;20.44;51.26
22018;BME280;11173;51.050;7.108;2022-08-21T10:15:18;99589.88;;;20.53;52.05
22018;BME280;11173;51.050;7.108;2022-08-21T10:20:25;99574.16;;;20.52;52.26
22018;BME280;11173;51.050;7.108;2022-08-21T10:25:37;99586.50;;;20.70;51.18
22018;BME280;11173;51.050;7.108;2022-08-21T10:30:56;99579.94;;;20.78;50.44
22018;BME280;11173;51.050;7.108;2022-08-21T10:52:41;99562.84;;;21.08;50.71
22018;BME280;11173;51.050;7.108;2022-08-21T11:02:57;99563.75;;;21.40;50.24
22018;BME280;11173;51.050;7.108;2022-08-21T11:08:06;99557.00;;;21.58;50.11
22018;BME280;11173;51.050;7.108;2022-08-21T11:13:17;99564.69;;;21.78;49.81
22018;BME280;11173;51.050;7.108;2022-08-21T11:18:21;99572.09;;;22.02;49.27
22018;BME280;11173;51.050;7.108;2022-08-21T11:23:38;99557.34;;;22.24;48.37
22018;BME280;11173;51.050;7.108;2022-08-21T11:28:50;99554.09;;;22.37;47.07
22018;BME280;11173;51.050;7.108;2022-08-21T11:39:26;99557.28;;;22.56;46.36
22018;BME280;11173;51.050;7.108;2022-08-21T11:45:10;99548.31;;;22.63;47.05
22018;BME280;11173;51.050;7.108;2022-08-21T12:05:38;99546.88;;;22.84;45.43
22018;BME280;11173;51.050;7.108;2022-08-21T12:10:59;99539.97;;;22.91;44.33
22018;BME280;11173;51.050;7.108;2022-08-21T12:16:12;99540.44;;;22.90;43.96
22018;BME280;11173;51.050;7.108;2022-08-21T12:21:19;99541.53;;;22.92;43.14
22018;BME280;11173;51.050;7.108;2022-08-21T12:26:27;99528.03;;;22.87;43.42
22018;BME280;11173;51.050;7.108;2022-08-21T12:31:28;99520.53;;;22.84;42.75
22018;BME280;11173;51.050;7.108;2022-08-21T12:36:40;99524.47;;;22.98;42.99
22018;BME280;11173;51.050;7.108;2022-08-21T12:41:47;99527.34;;;23.03;43.28
22018;BME280;11173;51.050;7.108;2022-08-21T12:46:56;99533.31;;;23.11;43.78
22018;BME280;11173;51.050;7.108;2022-08-21T12:52:08;99528.97;;;23.27;43.90
22018;BME280;11173;51.050;7.108;2022-08-21T12:57:19;99531.84;;;23.38;43.10
22018;BME280;11173;51.050;7.108;2022-08-21T13:02:24;99527.97;;;23.41;42.27
22018;BME280;11173;51.050;7.108;2022-08-21T13:07:30;99527.22;;;23.41;42.38
22018;BME280;11173;51.050;7.108;2022-08-21T13:12:33;99524.38;;;23.41;41.78
22018;BME280;11173;51.050;7.108;2022-08-21T13:17:38;99516.88;;;23.49;42.22
22018;BME280;11173;51.050;7.108;2022-08-21T13:22:42;99508.91;;;23.59;42.34
22018;BME280;11173;51.050;7.108;2022-08-21T13:27:56;99513.81;;;23.70;41.77
22018;BME280;11173;51.050;7.108;2022-08-21T13:32:59;99509.44;;;23.86;41.85
22018;BME280;11173;51.050;7.108;2022-08-21T13:38:00;99514.88;;;24.06;41.70
22018;BME280;11173;51.050;7.108;2022-08-21T13:43:00;99506.59;;;24.25;42.74
22018;BME280;11173;51.050;7.108;2022-08-21T13:48:02;99503.97;;;24.44;41.50
22018;BME280;11173;51.050;7.108;2022-08-21T13:53:06;99500.06;;;24.58;40.90
22018;BME280;11173;51.050;7.108;2022-08-21T13:58:08;99504.44;;;24.65;40.20
22018;BME280;11173;51.050;7.108;2022-08-21T14:03:09;99506.50;;;24.70;39.45
22018;BME280;11173;51.050;7.108;2022-08-21T14:08:14;99511.38;;;24.75;39.84
22018;BME280;11173;51.050;7.108;2022-08-21T14:13:37;99502.81;;;24.75;35.70
22018;BME280;11173;51.050;7.108;2022-08-21T14:18:54;99497.63;;;24.79;39.88
22018;BME280;11173;51.050;7.108;2022-08-21T14:24:13;99493.50;;;24.80;39.64
22018;BME280;11173;51.050;7.108;2022-08-21T14:29:16;99483.63;;;24.81;38.09
22018;BME280;11173;51.050;7.108;2022-08-21T14:34:17;99477.97;;;24.76;39.06
22018;BME280;11173;51.050;7.108;2022-08-21T14:39:17;99484.72;;;24.73;39.11
22018;BME280;11173;51.050;7.108;2022-08-21T14:44:18;99480.34;;;24.66;38.60
22018;BME280;11173;51.050;7.108;2022-08-21T14:49:19;99465.31;;;24.66;38.91
22018;BME280;11173;51.050;7.108;2022-08-21T14:54:19;99471.81;;;24.66;38.49
22018;BME280;11173;51.050;7.108;2022-08-21T14:59:20;99466.13;;;24.66;38.65
22018;BME280;11173;51.050;7.108;2022-08-21T15:04:21;99461.44;;;24.69;38.95
22018;BME280;11173;51.050;7.108;2022-08-21T15:09:22;99454.97;;;24.68;37.86
22018;BME280;11173;51.050;7.108;2022-08-21T15:14:28;99466.13;;;24.66;38.04
22018;BME280;11173;51.050;7.108;2022-08-21T15:19:29;99469.25;;;24.57;37.73
22018;BME280;11173;51.050;7.108;2022-08-21T15:24:30;99468.50;;;24.45;37.32
22018;BME280;11173;51.050;7.108;2022-08-21T15:29:31;99459.75;;;24.32;37.15
22018;BME280;11173;51.050;7.108;2022-08-21T15:34:31;99468.03;;;24.18;37.92
22018;BME280;11173;51.050;7.108;2022-08-21T15:39:32;99460.53;;;24.10;38.58
22018;BME280;11173;51.050;7.108;2022-08-21T15:44:32;99465.97;;;24.08;38.73
22018;BME280;11173;51.050;7.108;2022-08-21T15:49:33;99459.75;;;24.09;38.34
22018;BME280;11173;51.050;7.108;2022-08-21T15:54:33;99459.50;;;24.01;38.00
22018;BME280;11173;51.050;7.108;2022-08-21T15:59:40;99462.13;;;23.88;38.67
22018;BME280;11173;51.050;7.108;2022-08-21T16:04:40;99454.38;;;23.72;38.71
22018;BME280;11173;51.050;7.108;2022-08-21T16:09:41;99450.22;;;23.61;38.66
22018;BME280;11173;51.050;7.108;2022-08-21T16:14:42;99448.69;;;23.60;38.42
22018;BME280;11173;51.050;7.108;2022-08-21T16:19:43;99446.84;;;23.57;38.67
22018;BME280;11173;51.050;7.108;2022-08-21T16:24:43;99451.78;;;23.74;38.95
22018;BME280;11173;51.050;7.108;2022-08-21T16:29:44;99444.56;;;23.84;38.57
22018;BME280;11173;51.050;7.108;2022-08-21T16:34:47;99456.16;;;23.97;38.95
22018;BME280;11173;51.050;7.108;2022-08-21T16:39:48;99452.81;;;24.05;38.63
22018;BME280;11173;51.050;7.108;2022-08-21T16:44:48;99450.97;;;24.07;38.70
22018;BME280;11173;51.050;7.108;2022-08-21T16:49:49;99447.88;;;24.05;38.70
22018;BME280;11173;51.050;7.108;2022-08-21T16:54:50;99445.81;;;24.00;38.35
22018;BME280;11173;51.050;7.108;2022-08-21T16:59:50;99449.19;;;23.98;38.49
22018;BME280;11173;51.050;7.108;2022-08-21T17:04:51;99447.38;;;23.95;38.95
22018;BME280;11173;51.050;7.108;2022-08-21T17:10:00;99448.69;;;23.94;38.87
22018;BME280;11173;51.050;7.108;2022-08-21T17:15:05;99453.31;;;23.97;39.19
22018;BME280;11173;51.050;7.108;2022-08-21T17:20:06;99462.09;;;23.99;38.58
22018;BME280;11173;51.050;7.108;2022-08-21T17:25:07;99456.66;;;24.01;38.29
22018;BME280;11173;51.050;7.108;2022-08-21T17:30:09;99464.94;;;23.99;38.32
22018;BME280;11173;51.050;7.108;2022-08-21T17:35:11;99465.19;;;24.01;38.27
22018;BME280;11173;51.050;7.108;2022-08-21T17:40:13;99458.75;;;23.95;37.84
22018;BME280;11173;51.050;7.108;2022-08-21T17:45:16;99467.03;;;23.82;38.10
22018;BME280;11173;51.050;7.108;2022-08-21T17:50:17;99460.84;;;23.61;37.72
22018;BME280;11173;51.050;7.108;2022-08-21T17:55:18;99460.53;;;23.31;38.04
22018;BME280;11173;51.050;7.108;2022-08-21T18:00:24;99470.78;;;23.00;38.58
22018;BME280;11173;51.050;7.108;2022-08-21T18:05:25;99472.19;;;22.67;38.66
22018;BME280;11173;51.050;7.108;2022-08-21T18:10:26;99479.25;;;22.34;38.95
22018;BME280;11173;51.050;7.108;2022-08-21T18:15:27;99476.44;;;22.02;39.13
22018;BME280;11173;51.050;7.108;2022-08-21T18:20:27;99474.66;;;21.73;39.56
22018;BME280;11173;51.050;7.108;2022-08-21T18:25:28;99494.78;;;21.49;39.58
22018;BME280;11173;51.050;7.108;2022-08-21T18:30:29;99497.63;;;21.23;39.84
22018;BME280;11173;51.050;7.108;2022-08-21T18:35:30;99487.81;;;20.98;40.41
22018;BME280;11173;51.050;7.108;2022-08-21T18:40:32;99501.97;;;20.77;40.55
22018;BME280;11173;51.050;7.108;2022-08-21T18:45:32;99508.09;;;20.55;40.87
22018;BME280;11173;51.050;7.108;2022-08-21T18:50:37;99497.25;;;20.33;41.30
22018;BME280;11173;51.050;7.108;2022-08-21T18:55:41;99504.50;;;20.19;41.55
22018;BME280;11173;51.050;7.108;2022-08-21T19:00:45;99505.03;;;20.03;41.39
22018;BME280;11173;51.050;7.108;2022-08-21T19:05:47;99499.06;;;19.86;41.73
22018;BME280;11173;51.050;7.108;2022-08-21T19:10:49;99504.81;;;19.77;42.00
22018;BME280;11173;51.050;7.108;2022-08-21T19:15:51;99500.81;;;19.68;42.47
22018;BME280;11173;51.050;7.108;2022-08-21T19:20:55;99508.41;;;19.62;42.16
22018;BME280;11173;51.050;7.108;2022-08-21T19:25:57;99507.84;;;19.58;42.41
22018;BME280;11173;51.050;7.108;2022-08-21T19:31:03;99510.38;;;19.56;42.43
22018;BME280;11173;51.050;7.108;2022-08-21T19:36:07;99518.25;;;19.52;42.36
22018;BME280;11173;51.050;7.108;2022-08-21T19:41:09;99516.59;;;19.45;42.55
22018;BME280;11173;51.050;7.108;2022-08-21T19:46:14;99520.09;;;19.40;42.81
22018;BME280;11173;51.050;7.108;2022-08-21T19:51:17;99517.19;;;19.35;42.78
22018;BME280;11173;51.050;7.108;2022-08-21T19:56:20;99518.16;;;19.32;42.52
22018;BME280;11173;51.050;7.108;2022-08-21T20:01:23;99517.38;;;19.31;42.35
22018;BME280;11173;51.050;7.108;2022-08-21T20:06:25;99518.16;;;19.32;42.55
22018;BME280;11173;51.050;7.108;2022-08-21T20:11:36;99514.38;;;19.35;42.92
22018;BME280;11173;51.050;7.108;2022-08-21T20:16:38;99521.44;;;19.30;42.60
22018;BME280;11173;51.050;7.108;2022-08-21T20:21:39;99527.56;;;19.28;42.63
22018;BME280;11173;51.050;7.108;2022-08-21T20:26:41;99523.19;;;19.27;42.63
22018;BME280;11173;51.050;7.108;2022-08-21T20:31:42;99524.97;;;19.25;42.77
22018;BME280;11173;51.050;7.108;2022-08-21T20:36:43;99521.81;;;19.23;42.83
22018;BME280;11173;51.050;7.108;2022-08-21T20:41:43;99522.75;;;19.20;42.83
22018;BME280;11173;51.050;7.108;2022-08-21T20:46:44;99519.34;;;19.16;42.68
22018;BME280;11173;51.050;7.108;2022-08-21T20:51:48;99533.00;;;19.17;42.78
22018;BME280;11173;51.050;7.108;2022-08-21T20:56:53;99522.06;;;19.10;42.90
22018;BME280;11173;51.050;7.108;2022-08-21T21:02:00;99524.88;;;19.10;42.89
22018;BME280;11173;51.050;7.108;2022-08-21T21:07:08;99519.41;;;19.06;42.81
22018;BME280;11173;51.050;7.108;2022-08-21T21:12:24;99518.81;;;19.02;43.05
22018;BME280;11173;51.050;7.108;2022-08-21T21:17:41;99525.75;;;19.01;43.53
22018;BME280;11173;51.050;7.108;2022-08-21T21:22:48;99514.34;;;18.96;43.18
22018;BME280;11173;51.050;7.108;2022-08-21T21:27:58;99504.81;;;18.93;43.16
22018;BME280;11173;51.050;7.108;2022-08-21T21:33:00;99513.91;;;18.88;43.20
22018;BME280;11173;51.050;7.108;2022-08-21T21:43:46;99515.84;;;18.82;43.40
22018;BME280;11173;51.050;7.108;2022-08-21T22:15:34;99518.91;;;18.45;44.53
22018;BME280;11173;51.050;7.108;2022-08-21T22:25:41;99527.53;;;18.41;44.71
22018;BME280;11173;51.050;7.108;2022-08-21T22:30:48;99523.63;;;18.39;44.80
22018;BME280;11173;51.050;7.108;2022-08-21T22:35:51;99528.31;;;18.33;45.22
22018;BME280;11173;51.050;7.108;2022-08-21T22:41:11;99529.16;;;18.24;45.26
22018;BME280;11173;51.050;7.108;2022-08-21T22:46:28;99529.34;;;18.20;46.44
22018;BME280;11173;51.050;7.108;2022-08-21T22:51:34;99539.22;;;18.16;44.84
22018;BME280;11173;51.050;7.108;2022-08-21T22:56:38;99537.03;;;18.11;45.32
22018;BME280;11173;51.050;7.108;2022-08-21T23:01:43;99537.41;;;18.03;45.69
22018;BME280;11173;51.050;7.108;2022-08-21T23:06:50;99531.78;;;17.94;45.81
22018;BME280;11173;51.050;7.108;2022-08-21T23:11:51;99530.25;;;17.84;45.92
22018;BME280;11173;51.050;7.108;2022-08-21T23:17:03;99534.50;;;17.79;46.79
22018;BME280;11173;51.050;7.108;2022-08-21T23:33:04;99519.97;;;17.44;47.23
22018;BME280;11173;51.050;7.108;2022-08-21T23:38:18;99518.91;;;17.32;46.47
22018;BME280;11173;51.050;7.108;2022-08-21T23:43:41;99518.59;;;17.21;46.69
22018;BME280;11173;51.050;7.108;2022-08-21T23:48:49;99518.44;;;17.06;47.74
22018;BME280;11173;51.050;7.108;2022-08-21T23:54:11;99515.78;;;16.93;48.31
